sensor_id;sensor_type;location;lat;lon;timestamp;temperature;humidity
25554;DHT22;13446;50.926;5.332;2024-03-02T00:03:47;10.40;99.90
25554;DHT22;13446;50.926;5.332;2024-03-02T00:06:31;10.10;99.90
25554;DHT22;13446;50.926;5.332;2024-03-02T00:09:00;9.90;99.90
25554;DHT22;13446;50.926;5.332;2024-03-02T00:11:26;9.90;99.90
25554;DHT22;13446;50.926;5.332;2024-03-02T00:13:54;9.60;99.90
25554;DHT22;13446;50.926;5.332;2024-03-02T00:16:20;9.40;99.90
25554;DHT22;13446;50.926;5.332;2024-03-02T00:19:24;9.20;99.90
25554;DHT22;13446;50.926;5.332;2024-03-02T00:22:18;9.20;99.90
25554;DHT22;13446;50.926;5.332;2024-03-02T00:24:58;9.20;99.90
25554;DHT22;13446;50.926;5.332;2024-03-02T00:27:25;9.10;99.90
25554;DHT22;13446;50.926;5.332;2024-03-02T00:35:31;8.90;99.90
25554;DHT22;13446;50.926;5.332;2024-03-02T00:37:57;8.90;99.90
25554;DHT22;13446;50.926;5.332;2024-03-02T00:40:27;8.90;99.90
25554;DHT22;13446;50.926;5.332;2024-03-02T00:42:56;9.00;99.90
25554;DHT22;13446;50.926;5.332;2024-03-02T00:46:03;9.10;99.90
25554;DHT22;13446;50.926;5.332;2024-03-02T00:48:34;9.00;99.90
25554;DHT22;13446;50.926;5.332;2024-03-02T00:51:05;9.10;99.90
25554;DHT22;13446;50.926;5.332;2024-03-02T00:53:32;9.10;99.90
25554;DHT22;13446;50.926;5.332;2024-03-02T00:56:01;9.10;99.90
25554;DHT22;13446;50.926;5.332;2024-03-02T00:58:27;9.10;99.90
25554;DHT22;13446;50.926;5.332;2024-03-02T01:00:52;9.20;99.90
25554;DHT22;13446;50.926;5.332;2024-03-02T01:03:18;9.20;99.90
25554;DHT22;13446;50.926;5.332;2024-03-02T01:05:45;9.10;99.90
25554;DHT22;13446;50.926;5.332;2024-03-02T01:08:12;9.20;99.90
25554;DHT22;13446;50.926;5.332;2024-03-02T01:14:15;9.20;99.90
25554;DHT22;13446;50.926;5.332;2024-03-02T01:16:50;9.20;99.90
25554;DHT22;13446;50.926;5.332;2024-03-02T01:19:15;9.20;99.90
25554;DHT22;13446;50.926;5.332;2024-03-02T01:38:36;9.10;99.90
25554;DHT22;13446;50.926;5.332;2024-03-02T01:41:02;9.10;99.90
25554;DHT22;13446;50.926;5.332;2024-03-02T01:43:29;9.20;99.90
25554;DHT22;13446;50.926;5.332;2024-03-02T01:45:55;9.20;99.90
25554;DHT22;13446;50.926;5.332;2024-03-02T01:48:22;9.20;99.90
25554;DHT22;13446;50.926;5.332;2024-03-02T01:50:47;9.20;99.90
25554;DHT22;13446;50.926;5.332;2024-03-02T01:53:13;9.20;99.90
25554;DHT22;13446;50.926;5.332;2024-03-02T02:00:49;9.00;99.90
25554;DHT22;13446;50.926;5.332;2024-03-02T02:03:16;9.20;99.90
25554;DHT22;13446;50.926;5.332;2024-03-02T02:05:44;9.20;99.90
25554;DHT22;13446;50.926;5.332;2024-03-02T02:08:12;9.20;99.90
25554;DHT22;13446;50.926;5.332;2024-03-02T02:10:39;9.30;99.90
25554;DHT22;13446;50.926;5.332;2024-03-02T02:13:06;9.40;99.90
25554;DHT22;13446;50.926;5.332;2024-03-02T02:15:34;9.40;99.90
25554;DHT22;13446;50.926;5.332;2024-03-02T02:18:01;9.40;99.90
25554;DHT22;13446;50.926;5.332;2024-03-02T02:20:29;9.30;99.90
25554;DHT22;13446;50.926;5.332;2024-03-02T02:23:02;9.10;99.90
25554;DHT22;13446;50.926;5.332;2024-03-02T02:25:28;9.10;99.90
25554;DHT22;13446;50.926;5.332;2024-03-02T02:31:44;9.00;99.90
25554;DHT22;13446;50.926;5.332;2024-03-02T02:34:32;8.90;99.90
25554;DHT22;13446;50.926;5.332;2024-03-02T02:36:58;9.00;99.90
25554;DHT22;13446;50.926;5.332;2024-03-02T02:39:23;9.00;99.90
25554;DHT22;13446;50.926;5.332;2024-03-02T02:41:49;8.80;99.90
25554;DHT22;13446;50.926;5.332;2024-03-02T02:44:15;8.70;99.90
25554;DHT22;13446;50.926;5.332;2024-03-02T02:46:41;8.80;99.90
25554;DHT22;13446;50.926;5.332;2024-03-02T02:49:06;9.00;99.90
25554;DHT22;13446;50.926;5.332;2024-03-02T02:51:32;9.10;99.90
25554;DHT22;13446;50.926;5.332;2024-03-02T02:53:58;8.90;99.90
25554;DHT22;13446;50.926;5.332;2024-03-02T02:56:24;8.90;99.90
25554;DHT22;13446;50.926;5.332;2024-03-02T02:58:50;8.80;99.90
25554;DHT22;13446;50.926;5.332;2024-03-02T03:01:16;8.80;99.90
25554;DHT22;13446;50.926;5.332;2024-03-02T03:03:47;8.70;99.90
25554;DHT22;13446;50.926;5.332;2024-03-02T03:06:13;8.70;99.90
25554;DHT22;13446;50.926;5.332;2024-03-02T03:09:16;8.70;99.90
25554;DHT22;13446;50.926;5.332;2024-03-02T03:11:42;8.80;99.90
25554;DHT22;13446;50.926;5.332;2024-03-02T03:14:26;8.90;99.90
25554;DHT22;13446;50.926;5.332;2024-03-02T03:17:01;8.80;99.90
25554;DHT22;13446;50.926;5.332;2024-03-02T03:20:04;8.90;99.90
25554;DHT22;13446;50.926;5.332;2024-03-02T03:27:55;8.90;99.90
25554;DHT22;13446;50.926;5.332;2024-03-02T03:30:39;9.00;99.90
25554;DHT22;13446;50.926;5.332;2024-03-02T03:33:08;9.10;99.90
25554;DHT22;13446;50.926;5.332;2024-03-02T03:35:52;9.00;99.90
25554;DHT22;13446;50.926;5.332;2024-03-02T03:38:31;8.90;99.90
25554;DHT22;13446;50.926;5.332;2024-03-02T03:41:15;8.90;99.90
25554;DHT22;13446;50.926;5.332;2024-03-02T03:46:10;8.70;99.90
25554;DHT22;13446;50.926;5.332;2024-03-02T03:48:51;8.60;99.90
25554;DHT22;13446;50.926;5.332;2024-03-02T03:51:16;8.60;99.90
25554;DHT22;13446;50.926;5.332;2024-03-02T03:53:44;8.50;99.90
25554;DHT22;13446;50.926;5.332;2024-03-02T03:56:11;8.70;99.90
25554;DHT22;13446;50.926;5.332;2024-03-02T03:58:37;8.70;99.90
25554;DHT22;13446;50.926;5.332;2024-03-02T04:01:03;8.80;99.90
25554;DHT22;13446;50.926;5.332;2024-03-02T04:03:28;8.80;99.90
25554;DHT22;13446;50.926;5.332;2024-03-02T04:05:54;8.90;99.90
25554;DHT22;13446;50.926;5.332;2024-03-02T04:08:29;8.90;99.90
25554;DHT22;13446;50.926;5.332;2024-03-02T04:11:04;8.80;99.90
25554;DHT22;13446;50.926;5.332;2024-03-02T04:13:45;8.90;99.90
25554;DHT22;13446;50.926;5.332;2024-03-02T04:16:14;9.00;99.90
25554;DHT22;13446;50.926;5.332;2024-03-02T04:18:43;8.90;99.90
25554;DHT22;13446;50.926;5.332;2024-03-02T04:21:14;8.80;99.90
25554;DHT22;13446;50.926;5.332;2024-03-02T04:23:55;8.60;99.90
25554;DHT22;13446;50.926;5.332;2024-03-02T04:26:58;8.70;99.90
25554;DHT22;13446;50.926;5.332;2024-03-02T04:29:30;8.60;99.90
25554;DHT22;13446;50.926;5.332;2024-03-02T04:32:08;8.40;99.90
25554;DHT22;13446;50.926;5.332;2024-03-02T04:34:48;8.50;99.90
25554;DHT22;13446;50.926;5.332;2024-03-02T04:37:23;8.50;99.90
25554;DHT22;13446;50.926;5.332;2024-03-02T04:40:06;8.50;99.90
25554;DHT22;13446;50.926;5.332;2024-03-02T04:42:42;8.50;99.90
25554;DHT22;13446;50.926;5.332;2024-03-02T04:45:08;8.50;99.90
25554;DHT22;13446;50.926;5.332;2024-03-02T04:50:27;8.50;99.90
25554;DHT22;13446;50.926;5.332;2024-03-02T04:52:54;8.50;99.90
25554;DHT22;13446;50.926;5.332;2024-03-02T04:55:19;8.40;99.90
25554;DHT22;13446;50.926;5.332;2024-03-02T04:58:04;8.40;99.90
25554;DHT22;13446;50.926;5.332;2024-03-02T05:00:29;8.20;99.90
25554;DHT22;13446;50.926;5.332;2024-03-02T05:02:55;8.10;99.90
25554;DHT22;13446;50.926;5.332;2024-03-02T05:05:42;8.20;99.90
25554;DHT22;13446;50.926;5.332;2024-03-02T05:11:32;8.20;99.90
25554;DHT22;13446;50.926;5.332;2024-03-02T05:14:25;8.10;99.90
25554;DHT22;13446;50.926;5.332;2024-03-02T05:17:06;8.10;99.90
25554;DHT22;13446;50.926;5.332;2024-03-02T05:19:35;8.00;99.90
25554;DHT22;13446;50.926;5.332;2024-03-02T05:22:01;8.00;99.90
25554;DHT22;13446;50.926;5.332;2024-03-02T05:24:35;8.10;99.90
25554;DHT22;13446;50.926;5.332;2024-03-02T05:27:08;8.00;99.90
25554;DHT22;13446;50.926;5.332;2024-03-02T05:29:52;8.00;99.90
25554;DHT22;13446;50.926;5.332;2024-03-02T05:32:36;8.00;99.90
25554;DHT22;13446;50.926;5.332;2024-03-02T05:35:05;8.00;99.90
25554;DHT22;13446;50.926;5.332;2024-03-02T05:37:31;8.00;99.90
25554;DHT22;13446;50.926;5.332;2024-03-02T05:39:58;8.00;99.90
25554;DHT22;13446;50.926;5.332;2024-03-02T05:42:25;7.80;99.90
25554;DHT22;13446;50.926;5.332;2024-03-02T05:44:53;7.90;99.90
25554;DHT22;13446;50.926;5.332;2024-03-02T05:47:18;7.90;99.90
25554;DHT22;13446;50.926;5.332;2024-03-02T05:49:44;7.90;99.90
25554;DHT22;13446;50.926;5.332;2024-03-02T05:52:10;7.90;99.90
25554;DHT22;13446;50.926;5.332;2024-03-02T05:54:37;7.80;99.90
25554;DHT22;13446;50.926;5.332;2024-03-02T05:57:05;7.90;99.90
25554;DHT22;13446;50.926;5.332;2024-03-02T05:59:54;8.10;99.90
25554;DHT22;13446;50.926;5.332;2024-03-02T06:02:20;8.00;99.90
25554;DHT22;13446;50.926;5.332;2024-03-02T06:04:45;8.00;99.90
25554;DHT22;13446;50.926;5.332;2024-03-02T06:07:11;7.90;99.90
25554;DHT22;13446;50.926;5.332;2024-03-02T06:09:49;8.00;99.90
25554;DHT22;13446;50.926;5.332;2024-03-02T06:12:18;8.00;99.90
25554;DHT22;13446;50.926;5.332;2024-03-02T06:14:44;8.00;99.90
25554;DHT22;13446;50.926;5.332;2024-03-02T06:17:10;8.10;99.90
25554;DHT22;13446;50.926;5.332;2024-03-02T06:19:39;8.10;99.90
25554;DHT22;13446;50.926;5.332;2024-03-02T06:22:08;8.10;99.90
25554;DHT22;13446;50.926;5.332;2024-03-02T06:24:39;8.10;99.90
25554;DHT22;13446;50.926;5.332;2024-03-02T06:27:05;8.10;99.90
25554;DHT22;13446;50.926;5.332;2024-03-02T06:29:43;8.10;99.90
25554;DHT22;13446;50.926;5.332;2024-03-02T06:32:09;8.10;99.90
25554;DHT22;13446;50.926;5.332;2024-03-02T06:34:34;8.20;99.90
25554;DHT22;13446;50.926;5.332;2024-03-02T06:37:03;8.20;99.90
25554;DHT22;13446;50.926;5.332;2024-03-02T06:39:32;8.10;99.90
25554;DHT22;13446;50.926;5.332;2024-03-02T06:49:56;7.90;99.90
25554;DHT22;13446;50.926;5.332;2024-03-02T06:52:24;8.00;99.90
25554;DHT22;13446;50.926;5.332;2024-03-02T06:54:54;8.00;99.90
25554;DHT22;13446;50.926;5.332;2024-03-02T06:57:32;8.10;99.90
25554;DHT22;13446;50.926;5.332;2024-03-02T07:00:26;8.10;99.90
25554;DHT22;13446;50.926;5.332;2024-03-02T07:02:52;8.10;99.90
25554;DHT22;13446;50.926;5.332;2024-03-02T07:05:39;8.10;99.90
25554;DHT22;13446;50.926;5.332;2024-03-02T07:13:26;8.50;99.90
25554;DHT22;13446;50.926;5.332;2024-03-02T07:19:44;8.40;99.90
25554;DHT22;13446;50.926;5.332;2024-03-02T07:22:15;8.40;99.90
25554;DHT22;13446;50.926;5.332;2024-03-02T07:24:53;8.60;99.90
25554;DHT22;13446;50.926;5.332;2024-03-02T07:30:03;8.50;99.90
25554;DHT22;13446;50.926;5.332;2024-03-02T07:32:37;8.60;99.90
25554;DHT22;13446;50.926;5.332;2024-03-02T07:35:03;8.50;99.90
25554;DHT22;13446;50.926;5.332;2024-03-02T07:37:29;8.60;99.90
25554;DHT22;13446;50.926;5.332;2024-03-02T07:39:55;8.50;99.90
25554;DHT22;13446;50.926;5.332;2024-03-02T07:42:21;8.40;99.90
25554;DHT22;13446;50.926;5.332;2024-03-02T07:44:46;8.20;99.90
25554;DHT22;13446;50.926;5.332;2024-03-02T07:47:12;8.50;99.90
25554;DHT22;13446;50.926;5.332;2024-03-02T07:49:39;8.60;99.90
25554;DHT22;13446;50.926;5.332;2024-03-02T07:52:05;9.30;99.90
25554;DHT22;13446;50.926;5.332;2024-03-02T07:54:31;10.30;99.90
25554;DHT22;13446;50.926;5.332;2024-03-02T07:56:56;11.40;99.90
25554;DHT22;13446;50.926;5.332;2024-03-02T07:59:28;12.20;99.90
25554;DHT22;13446;50.926;5.332;2024-03-02T08:01:54;13.00;99.90
25554;DHT22;13446;50.926;5.332;2024-03-02T08:04:22;13.50;99.90
25554;DHT22;13446;50.926;5.332;2024-03-02T08:06:48;14.50;99.90
25554;DHT22;13446;50.926;5.332;2024-03-02T08:09:19;15.10;99.90
25554;DHT22;13446;50.926;5.332;2024-03-02T08:11:47;15.50;99.90
25554;DHT22;13446;50.926;5.332;2024-03-02T08:14:14;15.50;99.90
25554;DHT22;13446;50.926;5.332;2024-03-02T08:16:40;16.30;99.90
25554;DHT22;13446;50.926;5.332;2024-03-02T08:19:07;16.80;99.90
25554;DHT22;13446;50.926;5.332;2024-03-02T08:21:32;17.10;99.50
25554;DHT22;13446;50.926;5.332;2024-03-02T08:24:01;17.40;97.80
25554;DHT22;13446;50.926;5.332;2024-03-02T08:26:27;17.50;97.50
25554;DHT22;13446;50.926;5.332;2024-03-02T08:28:55;18.00;95.60
25554;DHT22;13446;50.926;5.332;2024-03-02T08:31:21;17.60;95.00
25554;DHT22;13446;50.926;5.332;2024-03-02T08:33:46;17.20;95.40
25554;DHT22;13446;50.926;5.332;2024-03-02T08:36:13;17.10;96.20
25554;DHT22;13446;50.926;5.332;2024-03-02T08:38:39;17.50;95.30
25554;DHT22;13446;50.926;5.332;2024-03-02T08:41:05;17.40;94.10
25554;DHT22;13446;50.926;5.332;2024-03-02T08:43:31;17.10;95.50
25554;DHT22;13446;50.926;5.332;2024-03-02T08:45:56;17.30;95.40
25554;DHT22;13446;50.926;5.332;2024-03-02T08:48:25;17.60;94.30
25554;DHT22;13446;50.926;5.332;2024-03-02T08:50:51;17.00;95.00
25554;DHT22;13446;50.926;5.332;2024-03-02T08:53:18;17.20;95.00
25554;DHT22;13446;50.926;5.332;2024-03-02T08:55:45;17.80;93.90
25554;DHT22;13446;50.926;5.332;2024-03-02T08:58:11;17.70;92.50
25554;DHT22;13446;50.926;5.332;2024-03-02T09:00:37;16.90;92.70
25554;DHT22;13446;50.926;5.332;2024-03-02T09:03:03;16.70;94.30
25554;DHT22;13446;50.926;5.332;2024-03-02T09:05:31;16.50;94.60
25554;DHT22;13446;50.926;5.332;2024-03-02T09:07:57;16.10;95.10
25554;DHT22;13446;50.926;5.332;2024-03-02T09:10:22;16.10;96.20
25554;DHT22;13446;50.926;5.332;2024-03-02T09:12:49;16.50;95.30
25554;DHT22;13446;50.926;5.332;2024-03-02T09:15:14;16.70;94.50
25554;DHT22;13446;50.926;5.332;2024-03-02T09:17:40;16.80;94.10
25554;DHT22;13446;50.926;5.332;2024-03-02T09:20:06;16.80;93.40
25554;DHT22;13446;50.926;5.332;2024-03-02T09:22:32;16.70;93.80
25554;DHT22;13446;50.926;5.332;2024-03-02T09:24:58;17.30;92.90
25554;DHT22;13446;50.926;5.332;2024-03-02T09:27:24;17.90;91.50
25554;DHT22;13446;50.926;5.332;2024-03-02T09:29:51;18.00;89.80
25554;DHT22;13446;50.926;5.332;2024-03-02T09:32:18;18.00;89.30
25554;DHT22;13446;50.926;5.332;2024-03-02T09:34:43;17.90;88.00
25554;DHT22;13446;50.926;5.332;2024-03-02T09:37:09;18.00;89.30
25554;DHT22;13446;50.926;5.332;2024-03-02T09:39:35;19.00;86.00
25554;DHT22;13446;50.926;5.332;2024-03-02T09:42:02;19.10;82.00
25554;DHT22;13446;50.926;5.332;2024-03-02T09:44:30;18.00;83.20
25554;DHT22;13446;50.926;5.332;2024-03-02T09:46:56;16.80;89.90
25554;DHT22;13446;50.926;5.332;2024-03-02T09:49:22;15.90;92.80
25554;DHT22;13446;50.926;5.332;2024-03-02T09:51:48;15.50;95.10
25554;DHT22;13446;50.926;5.332;2024-03-02T09:54:16;15.40;96.20
25554;DHT22;13446;50.926;5.332;2024-03-02T09:56:44;14.90;96.80
25554;DHT22;13446;50.926;5.332;2024-03-02T09:59:10;14.70;97.60
25554;DHT22;13446;50.926;5.332;2024-03-02T10:01:35;14.60;98.20
25554;DHT22;13446;50.926;5.332;2024-03-02T10:04:01;14.20;99.20
25554;DHT22;13446;50.926;5.332;2024-03-02T10:06:30;13.80;99.90
25554;DHT22;13446;50.926;5.332;2024-03-02T10:08:56;13.70;99.90
25554;DHT22;13446;50.926;5.332;2024-03-02T10:11:40;13.80;99.90
25554;DHT22;13446;50.926;5.332;2024-03-02T10:14:10;14.20;99.90
25554;DHT22;13446;50.926;5.332;2024-03-02T10:16:37;13.90;99.90
25554;DHT22;13446;50.926;5.332;2024-03-02T10:21:42;13.60;99.90
25554;DHT22;13446;50.926;5.332;2024-03-02T10:24:08;13.40;99.90
25554;DHT22;13446;50.926;5.332;2024-03-02T10:26:33;13.30;99.90
25554;DHT22;13446;50.926;5.332;2024-03-02T10:31:41;13.60;99.90
25554;DHT22;13446;50.926;5.332;2024-03-02T10:34:11;13.90;99.90
25554;DHT22;13446;50.926;5.332;2024-03-02T10:36:38;14.10;99.90
25554;DHT22;13446;50.926;5.332;2024-03-02T10:39:07;14.10;99.90
25554;DHT22;13446;50.926;5.332;2024-03-02T10:41:38;14.20;99.90
25554;DHT22;13446;50.926;5.332;2024-03-02T10:44:07;14.50;99.90
25554;DHT22;13446;50.926;5.332;2024-03-02T10:46:46;15.20;99.90
25554;DHT22;13446;50.926;5.332;2024-03-02T10:49:13;15.80;98.60
25554;DHT22;13446;50.926;5.332;2024-03-02T10:51:48;15.90;97.60
25554;DHT22;13446;50.926;5.332;2024-03-02T10:54:14;16.50;96.10
25554;DHT22;13446;50.926;5.332;2024-03-02T10:56:42;17.10;94.10
25554;DHT22;13446;50.926;5.332;2024-03-02T10:59:35;17.40;92.70
25554;DHT22;13446;50.926;5.332;2024-03-02T11:02:03;17.50;91.00
25554;DHT22;13446;50.926;5.332;2024-03-02T11:04:30;18.10;91.00
25554;DHT22;13446;50.926;5.332;2024-03-02T11:07:04;18.50;85.30
25554;DHT22;13446;50.926;5.332;2024-03-02T11:09:34;18.80;82.80
25554;DHT22;13446;50.926;5.332;2024-03-02T11:15:21;19.80;77.20
25554;DHT22;13446;50.926;5.332;2024-03-02T11:17:51;21.20;67.80
25554;DHT22;13446;50.926;5.332;2024-03-02T11:20:17;21.50;66.10
25554;DHT22;13446;50.926;5.332;2024-03-02T11:22:44;21.40;63.00
25554;DHT22;13446;50.926;5.332;2024-03-02T11:25:31;21.30;63.00
25554;DHT22;13446;50.926;5.332;2024-03-02T11:28:06;20.80;62.70
25554;DHT22;13446;50.926;5.332;2024-03-02T11:33:04;20.60;62.00
25554;DHT22;13446;50.926;5.332;2024-03-02T11:35:37;20.10;63.60
25554;DHT22;13446;50.926;5.332;2024-03-02T11:38:03;19.90;65.90
25554;DHT22;13446;50.926;5.332;2024-03-02T11:40:30;19.60;64.70
25554;DHT22;13446;50.926;5.332;2024-03-02T11:43:05;20.00;65.30
25554;DHT22;13446;50.926;5.332;2024-03-02T11:45:31;20.20;63.30
25554;DHT22;13446;50.926;5.332;2024-03-02T11:47:59;19.60;65.10
25554;DHT22;13446;50.926;5.332;2024-03-02T11:50:47;19.80;64.20
25554;DHT22;13446;50.926;5.332;2024-03-02T11:53:12;19.70;64.80
25554;DHT22;13446;50.926;5.332;2024-03-02T11:55:39;19.30;67.20
25554;DHT22;13446;50.926;5.332;2024-03-02T11:58:12;19.60;65.80
25554;DHT22;13446;50.926;5.332;2024-03-02T12:00:38;19.10;66.60
25554;DHT22;13446;50.926;5.332;2024-03-02T12:03:05;18.80;68.40
25554;DHT22;13446;50.926;5.332;2024-03-02T12:05:32;19.30;68.70
25554;DHT22;13446;50.926;5.332;2024-03-02T12:10:25;19.90;64.60
25554;DHT22;13446;50.926;5.332;2024-03-02T12:13:02;20.30;63.80
25554;DHT22;13446;50.926;5.332;2024-03-02T12:15:30;20.60;62.60
25554;DHT22;13446;50.926;5.332;2024-03-02T12:17:59;20.50;63.60
25554;DHT22;13446;50.926;5.332;2024-03-02T12:20:27;19.90;63.20
25554;DHT22;13446;50.926;5.332;2024-03-02T12:22:57;19.80;64.80
25554;DHT22;13446;50.926;5.332;2024-03-02T12:25:24;20.20;64.00
25554;DHT22;13446;50.926;5.332;2024-03-02T12:27:52;20.80;62.30
25554;DHT22;13446;50.926;5.332;2024-03-02T12:30:19;20.80;61.20
25554;DHT22;13446;50.926;5.332;2024-03-02T12:32:45;20.90;60.80
25554;DHT22;13446;50.926;5.332;2024-03-02T12:35:12;21.20;61.00
25554;DHT22;13446;50.926;5.332;2024-03-02T12:37:51;21.70;59.40
25554;DHT22;13446;50.926;5.332;2024-03-02T12:40:19;21.10;58.90
25554;DHT22;13446;50.926;5.332;2024-03-02T12:42:46;20.80;61.60
25554;DHT22;13446;50.926;5.332;2024-03-02T12:45:13;20.80;61.70
25554;DHT22;13446;50.926;5.332;2024-03-02T12:47:40;21.30;60.50
25554;DHT22;13446;50.926;5.332;2024-03-02T12:50:07;21.70;59.10
25554;DHT22;13446;50.926;5.332;2024-03-02T12:52:33;21.60;58.40
25554;DHT22;13446;50.926;5.332;2024-03-02T12:55:04;20.70;59.50
25554;DHT22;13446;50.926;5.332;2024-03-02T12:57:32;19.50;63.50
25554;DHT22;13446;50.926;5.332;2024-03-02T13:00:00;18.60;67.20
25554;DHT22;13446;50.926;5.332;2024-03-02T13:02:31;18.10;70.40
25554;DHT22;13446;50.926;5.332;2024-03-02T13:04:58;18.00;71.10
25554;DHT22;13446;50.926;5.332;2024-03-02T13:07:25;17.80;72.80
25554;DHT22;13446;50.926;5.332;2024-03-02T13:09:51;17.80;73.70
25554;DHT22;13446;50.926;5.332;2024-03-02T13:12:18;17.80;74.60
25554;DHT22;13446;50.926;5.332;2024-03-02T13:14:44;17.70;75.60
25554;DHT22;13446;50.926;5.332;2024-03-02T13:17:17;17.20;77.20
25554;DHT22;13446;50.926;5.332;2024-03-02T13:20:03;17.20;79.80
25554;DHT22;13446;50.926;5.332;2024-03-02T13:22:39;18.20;78.30
25554;DHT22;13446;50.926;5.332;2024-03-02T13:25:17;18.10;75.20
25554;DHT22;13446;50.926;5.332;2024-03-02T13:27:46;18.00;75.30
25554;DHT22;13446;50.926;5.332;2024-03-02T13:30:12;18.10;76.30
25554;DHT22;13446;50.926;5.332;2024-03-02T13:32:40;18.60;74.60
25554;DHT22;13446;50.926;5.332;2024-03-02T13:35:25;18.60;74.50
25554;DHT22;13446;50.926;5.332;2024-03-02T13:37:58;19.00;72.50
25554;DHT22;13446;50.926;5.332;2024-03-02T13:40:33;19.20;71.50
25554;DHT22;13446;50.926;5.332;2024-03-02T13:43:02;18.20;74.30
25554;DHT22;13446;50.926;5.332;2024-03-02T13:45:29;17.80;78.10
25554;DHT22;13446;50.926;5.332;2024-03-02T13:47:56;17.40;79.60
25554;DHT22;13446;50.926;5.332;2024-03-02T13:50:22;17.00;81.80
25554;DHT22;13446;50.926;5.332;2024-03-02T13:52:47;17.40;83.10
25554;DHT22;13446;50.926;5.332;2024-03-02T13:55:18;17.60;82.20
25554;DHT22;13446;50.926;5.332;2024-03-02T13:57:51;17.60;81.90
25554;DHT22;13446;50.926;5.332;2024-03-02T14:00:18;17.40;83.20
25554;DHT22;13446;50.926;5.332;2024-03-02T14:02:45;17.20;85.30
25554;DHT22;13446;50.926;5.332;2024-03-02T14:05:30;16.80;86.10
25554;DHT22;13446;50.926;5.332;2024-03-02T14:07:56;16.80;88.50
25554;DHT22;13446;50.926;5.332;2024-03-02T14:10:21;17.20;88.40
25554;DHT22;13446;50.926;5.332;2024-03-02T14:12:48;17.70;86.70
25554;DHT22;13446;50.926;5.332;2024-03-02T14:15:17;18.00;84.70
25554;DHT22;13446;50.926;5.332;2024-03-02T14:17:42;17.50;85.80
25554;DHT22;13446;50.926;5.332;2024-03-02T14:20:08;17.00;87.40
25554;DHT22;13446;50.926;5.332;2024-03-02T14:22:37;16.70;90.20
25554;DHT22;13446;50.926;5.332;2024-03-02T14:25:03;16.40;91.90
25554;DHT22;13446;50.926;5.332;2024-03-02T14:27:29;16.50;91.90
25554;DHT22;13446;50.926;5.332;2024-03-02T14:29:55;16.40;92.40
25554;DHT22;13446;50.926;5.332;2024-03-02T14:32:21;16.20;93.10
25554;DHT22;13446;50.926;5.332;2024-03-02T14:34:48;16.00;93.50
25554;DHT22;13446;50.926;5.332;2024-03-02T14:37:16;15.90;94.30
25554;DHT22;13446;50.926;5.332;2024-03-02T14:39:42;15.90;94.90
25554;DHT22;13446;50.926;5.332;2024-03-02T14:42:08;15.90;95.10
25554;DHT22;13446;50.926;5.332;2024-03-02T14:44:34;15.50;95.60
25554;DHT22;13446;50.926;5.332;2024-03-02T14:47:01;15.30;96.80
25554;DHT22;13446;50.926;5.332;2024-03-02T14:49:28;15.20;97.60
25554;DHT22;13446;50.926;5.332;2024-03-02T14:51:54;15.00;98.70
25554;DHT22;13446;50.926;5.332;2024-03-02T14:54:21;15.00;99.10
25554;DHT22;13446;50.926;5.332;2024-03-02T14:56:46;15.10;99.70
25554;DHT22;13446;50.926;5.332;2024-03-02T14:59:12;15.20;99.70
25554;DHT22;13446;50.926;5.332;2024-03-02T15:01:39;15.20;99.50
25554;DHT22;13446;50.926;5.332;2024-03-02T15:04:05;15.20;98.90
25554;DHT22;13446;50.926;5.332;2024-03-02T15:06:31;15.10;99.40
25554;DHT22;13446;50.926;5.332;2024-03-02T15:08:57;15.20;99.30
25554;DHT22;13446;50.926;5.332;2024-03-02T15:11:23;15.20;99.10
25554;DHT22;13446;50.926;5.332;2024-03-02T15:13:51;15.10;99.70
25554;DHT22;13446;50.926;5.332;2024-03-02T15:16:19;15.20;99.50
25554;DHT22;13446;50.926;5.332;2024-03-02T15:18:46;15.30;99.40
25554;DHT22;13446;50.926;5.332;2024-03-02T15:21:12;15.00;99.80
25554;DHT22;13446;50.926;5.332;2024-03-02T15:23:43;14.90;99.90
25554;DHT22;13446;50.926;5.332;2024-03-02T15:26:10;14.80;99.90
25554;DHT22;13446;50.926;5.332;2024-03-02T15:28:37;14.60;99.90
25554;DHT22;13446;50.926;5.332;2024-03-02T15:31:03;14.50;99.90
25554;DHT22;13446;50.926;5.332;2024-03-02T15:33:29;14.50;99.90
25554;DHT22;13446;50.926;5.332;2024-03-02T15:36:00;14.60;99.90
25554;DHT22;13446;50.926;5.332;2024-03-02T15:38:27;14.40;99.90
25554;DHT22;13446;50.926;5.332;2024-03-02T15:40:52;14.20;99.90
25554;DHT22;13446;50.926;5.332;2024-03-02T15:43:18;14.20;99.90
25554;DHT22;13446;50.926;5.332;2024-03-02T15:45:44;14.40;99.90
25554;DHT22;13446;50.926;5.332;2024-03-02T15:48:10;14.60;99.90
25554;DHT22;13446;50.926;5.332;2024-03-02T15:50:36;14.60;99.90
25554;DHT22;13446;50.926;5.332;2024-03-02T15:53:03;14.60;99.90
25554;DHT22;13446;50.926;5.332;2024-03-02T15:55:32;14.50;99.90
25554;DHT22;13446;50.926;5.332;2024-03-02T15:57:58;14.30;99.90
25554;DHT22;13446;50.926;5.332;2024-03-02T16:00:24;14.60;99.90
25554;DHT22;13446;50.926;5.332;2024-03-02T16:02:49;14.60;99.90
25554;DHT22;13446;50.926;5.332;2024-03-02T16:05:15;14.60;99.90
25554;DHT22;13446;50.926;5.332;2024-03-02T16:07:45;14.70;99.90
25554;DHT22;13446;50.926;5.332;2024-03-02T16:10:11;14.80;99.90
25554;DHT22;13446;50.926;5.332;2024-03-02T16:12:36;14.60;99.90
25554;DHT22;13446;50.926;5.332;2024-03-02T16:15:02;14.50;99.90
25554;DHT22;13446;50.926;5.332;2024-03-02T16:17:28;14.40;99.90
25554;DHT22;13446;50.926;5.332;2024-03-02T16:19:54;14.40;99.90
25554;DHT22;13446;50.926;5.332;2024-03-02T16:22:22;14.30;99.90
25554;DHT22;13446;50.926;5.332;2024-03-02T16:24:51;14.20;99.90
25554;DHT22;13446;50.926;5.332;2024-03-02T16:27:23;14.30;99.90
25554;DHT22;13446;50.926;5.332;2024-03-02T16:29:50;14.30;99.90
25554;DHT22;13446;50.926;5.332;2024-03-02T16:32:15;14.40;99.90
25554;DHT22;13446;50.926;5.332;2024-03-02T16:34:44;14.30;99.90
25554;DHT22;13446;50.926;5.332;2024-03-02T16:37:10;14.20;99.90
25554;DHT22;13446;50.926;5.332;2024-03-02T16:39:36;14.30;99.90
25554;DHT22;13446;50.926;5.332;2024-03-02T16:45:35;14.40;99.90
25554;DHT22;13446;50.926;5.332;2024-03-02T16:48:09;14.30;99.90
25554;DHT22;13446;50.926;5.332;2024-03-02T16:50:44;14.20;99.90
25554;DHT22;13446;50.926;5.332;2024-03-02T16:53:20;14.00;99.90
25554;DHT22;13446;50.926;5.332;2024-03-02T16:55:52;13.90;99.90
25554;DHT22;13446;50.926;5.332;2024-03-02T16:58:18;13.90;99.90
25554;DHT22;13446;50.926;5.332;2024-03-02T17:00:45;14.00;99.90
25554;DHT22;13446;50.926;5.332;2024-03-02T17:03:11;14.10;99.90
25554;DHT22;13446;50.926;5.332;2024-03-02T17:05:36;13.90;99.90
25554;DHT22;13446;50.926;5.332;2024-03-02T17:08:17;13.90;99.90
25554;DHT22;13446;50.926;5.332;2024-03-02T17:10:43;13.90;99.90
25554;DHT22;13446;50.926;5.332;2024-03-02T17:13:12;13.90;99.90
25554;DHT22;13446;50.926;5.332;2024-03-02T17:15:37;13.90;99.90
25554;DHT22;13446;50.926;5.332;2024-03-02T17:18:03;14.00;99.90
25554;DHT22;13446;50.926;5.332;2024-03-02T17:20:29;14.00;99.90